Gamboola Airport


Codes: YGAM/GBP
Name: Gamboola Airport
City:
Country: Australia
Elevation: 0 ft.

Photos at Gamboola Airport


   Photos courtesy of SpottingLog. You can add your own sightings and photos by signing up for a free trial today.



No photos found.

Weather at Gamboola Airport


Time (UTC)DescriptionTempratureWindCloud coverageVisibilityPressureHumidity
16-Jun-2024 09:00Clear Sky24°C7 mph, SW1%10000m1013hPa26%
16-Jun-2024 12:00Clear Sky23°C7 mph, SW1%10000m1014hPa27%
16-Jun-2024 15:00Clear Sky20°C2 mph, NW1%10000m1014hPa36%
16-Jun-2024 18:00Clear Sky16°C4 mph, E1%10000m1015hPa80%
16-Jun-2024 21:00Clear Sky15°C4 mph, SE3%10000m1016hPa85%
17-Jun-2024 00:00Clear Sky24°C4 mph, SE2%10000m1017hPa49%
17-Jun-2024 03:00Clear Sky30°C2 mph, S2%10000m1014hPa28%
17-Jun-2024 06:00Clear Sky30°C4 mph, S1%10000m1012hPa21%
17-Jun-2024 09:00Clear Sky23°C4 mph, SW0%10000m1013hPa25%
17-Jun-2024 12:00Clear Sky20°C7 mph, S0%10000m1015hPa29%
17-Jun-2024 15:00Clear Sky17°C2 mph, NW0%10000m1016hPa56%
17-Jun-2024 18:00Clear Sky15°C2 mph, E2%10000m1016hPa81%
17-Jun-2024 21:00Clear Sky15°C4 mph, SE2%10000m1016hPa81%
18-Jun-2024 00:00Clear Sky23°C7 mph, SE1%10000m1017hPa46%
18-Jun-2024 03:00Clear Sky29°C4 mph, SE0%10000m1014hPa27%
18-Jun-2024 06:00Clear Sky29°C4 mph, S0%10000m1012hPa24%
18-Jun-2024 09:00Clear Sky23°C4 mph, SW0%10000m1013hPa38%
18-Jun-2024 12:00Clear Sky19°C7 mph, NE0%10000m1016hPa47%
18-Jun-2024 15:00Clear Sky16°C4 mph, NE0%10000m1016hPa77%
18-Jun-2024 18:00Clear Sky15°C4 mph, E0%10000m1015hPa88%
18-Jun-2024 21:00Clear Sky14°C4 mph, E0%10000m1017hPa93%
19-Jun-2024 00:00Clear Sky23°C4 mph, E0%10000m1017hPa55%
19-Jun-2024 03:00Clear Sky28°C4 mph, SE1%10000m1014hPa32%
19-Jun-2024 06:00Clear Sky30°C2 mph, SE0%10000m1012hPa25%
19-Jun-2024 09:00Clear Sky22°C4 mph, SW0%10000m1013hPa38%
19-Jun-2024 12:00Clear Sky18°C7 mph, NE0%10000m1015hPa58%
19-Jun-2024 15:00Clear Sky16°C4 mph, E0%10000m1016hPa75%
19-Jun-2024 18:00Clear Sky15°C7 mph, E0%10000m1016hPa85%
19-Jun-2024 21:00Clear Sky13°C4 mph, E0%10000m1017hPa87%
20-Jun-2024 00:00Clear Sky22°C7 mph, E2%10000m1018hPa44%
20-Jun-2024 03:00Clear Sky28°C7 mph, E0%10000m1015hPa24%
20-Jun-2024 06:00Clear Sky30°C4 mph, SE0%10000m1012hPa20%
20-Jun-2024 09:00Clear Sky22°C4 mph, E3%10000m1014hPa34%
20-Jun-2024 12:00Clear Sky18°C4 mph, E2%10000m1017hPa57%
20-Jun-2024 15:00Clear Sky16°C7 mph, E6%10000m1017hPa76%
20-Jun-2024 18:00Clear Sky14°C4 mph, E6%10000m1016hPa90%
20-Jun-2024 21:00Few Clouds14°C4 mph, SE13%10000m1018hPa94%
21-Jun-2024 00:00Clear Sky23°C9 mph, E8%10000m1018hPa55%
21-Jun-2024 03:00Few Clouds29°C9 mph, E11%10000m1014hPa32%
21-Jun-2024 06:00Scattered Clouds30°C4 mph, NE30%10000m1012hPa28%